Needles, California
Current Conditions -  °F | °C
As of 2:56 PM on Saturday 22 Nov 2014 (Local Time) from KEED Reporting Station
Clear Clear  
Wind Chill: 76°   Ceiling: Unl
Heat Index: 76°   Visibility: 10mi
Dew Point: 27°   Wind: 14mph
Humidity: 16%   Direction: 180°S
Pressure: 29.9"   Gusts: NA
Location:  34.84°N, 114.6°W
Report Text: KEED 222256Z AUTO 18012KT 10SM CLR 24/M03 A2990 RMK AO2 SLP108 T02441028
Loading
Personal Weather Stations






























Interactive Weather Map New forecast layout! Learn more

10-Day Weather Forecast

Advertisements
Track Severe Weather on mobile